Terminal Aerodrome Forecast
Issued by NWS Goodland, KS

Home | Current Version | Previous Version | Text Only | Print | Product List | Glossary On
Versions: 1 2 3 4 5 6 7 8 9 10 11 12 13
677
FTUS43 KGLD 060256 AAA
TAFGLD
TAF AMD
KGLD 060256Z 0603/0624 15010KT P6SM FEW250 WS002/15040KT
     FM061100 17011G21KT P6SM SCT250
     FM061600 18016G27KT P6SM SCT250=

USA.gov is the U.S. government's official web portal to all federal, state and local government web resources and services.